createdAt,value
2022-12-01T00:00:01.673Z,1026.8
2022-12-01T00:01:02.592Z,1026.8
2022-12-01T00:02:03.032Z,1026.8
2022-12-01T00:03:02.124Z,1026.8
2022-12-01T00:04:01.896Z,1026.7
2022-12-01T00:05:02.177Z,1026.8
2022-12-01T00:06:02.059Z,1026.8
2022-12-01T00:07:01.968Z,1026.8
2022-12-01T00:08:02.229Z,1026.7
2022-12-01T00:09:01.997Z,1026.7
2022-12-01T00:10:01.926Z,1026.7
2022-12-01T00:11:01.791Z,1026.8
2022-12-01T00:12:01.750Z,1026.8
2022-12-01T00:13:01.707Z,1026.8
2022-12-01T00:14:01.707Z,1026.7
2022-12-01T00:15:02.702Z,1026.8
2022-12-01T00:16:02.700Z,1026.8
2022-12-01T00:17:02.449Z,1026.8
2022-12-01T00:18:02.428Z,1026.8
2022-12-01T00:19:02.376Z,1026.8
2022-12-01T00:20:02.291Z,1026.8
2022-12-01T00:21:02.247Z,1026.8
2022-12-01T00:22:02.209Z,1026.8
2022-12-01T00:23:02.123Z,1026.8
2022-12-01T00:24:02.087Z,1026.8
2022-12-01T00:25:02.037Z,1026.8
2022-12-01T00:26:01.976Z,1026.7
2022-12-01T00:27:01.912Z,1026.8
2022-12-01T00:28:01.864Z,1026.7
2022-12-01T00:29:01.828Z,1026.7
2022-12-01T00:30:01.763Z,1026.7
2022-12-01T00:31:01.693Z,1026.8
2022-12-01T00:32:02.713Z,1026.8
2022-12-01T00:33:02.487Z,1026.8
2022-12-01T00:34:11.656Z,1026.8
2022-12-01T00:35:02.384Z,1026.7
2022-12-01T00:36:02.345Z,1026.8
2022-12-01T00:37:02.263Z,1026.7
2022-12-01T00:38:02.228Z,1026.8
2022-12-01T00:39:02.156Z,1026.8
2022-12-01T00:40:02.118Z,1026.7
2022-12-01T00:41:01.986Z,1026.7
2022-12-01T00:42:01.927Z,1026.8
2022-12-01T00:43:01.879Z,1026.8
2022-12-01T00:44:01.857Z,1026.8
2022-12-01T00:45:01.757Z,1026.8
2022-12-01T00:46:01.890Z,1026.8
2022-12-01T00:47:01.807Z,1026.8
2022-12-01T00:48:01.767Z,1026.8
2022-12-01T00:49:01.736Z,1026.7
2022-12-01T00:50:01.682Z,1026.7
2022-12-01T00:51:02.677Z,1026.7
2022-12-01T00:52:02.598Z,1026.6
2022-12-01T00:53:02.577Z,1026.7
2022-12-01T00:54:02.541Z,1026.5
2022-12-01T00:55:02.465Z,1026.6
2022-12-01T00:56:02.423Z,1026.6
2022-12-01T00:57:02.381Z,1026.7
2022-12-01T00:58:02.322Z,1026.7
2022-12-01T00:59:02.226Z,1026.7
2022-12-01T01:00:02.111Z,1026.7
2022-12-01T01:01:02.550Z,1026.7
2022-12-01T01:02:02.409Z,1026.7
2022-12-01T01:03:02.188Z,1026.7
2022-12-01T01:04:02.242Z,1026.7
2022-12-01T01:05:02.091Z,1026.7
2022-12-01T01:06:02.023Z,1026.7
2022-12-01T01:07:01.959Z,1026.7
2022-12-01T01:08:02.147Z,1026.6
2022-12-01T01:09:01.911Z,1026.7
2022-12-01T01:10:01.871Z,1026.5
2022-12-01T01:11:01.803Z,1026.6
2022-12-01T01:12:01.758Z,1026.6
2022-12-01T01:13:01.680Z,1026.6
2022-12-01T01:14:01.686Z,1026.6
2022-12-01T01:15:01.655Z,1026.6
2022-12-01T01:16:02.619Z,1026.6
2022-12-01T01:17:02.683Z,1026.6
2022-12-01T01:18:02.452Z,1026.6
2022-12-01T01:19:02.362Z,1026.6
2022-12-01T01:20:02.311Z,1026.6
2022-12-01T01:21:02.248Z,1026.5
2022-12-01T01:22:02.245Z,1026.6
2022-12-01T01:23:02.141Z,1026.6
2022-12-01T01:24:02.086Z,1026.6
2022-12-01T01:25:02.034Z,1026.6
2022-12-01T01:26:01.957Z,1026.6
2022-12-01T01:27:01.892Z,1026.6
2022-12-01T01:28:01.882Z,1026.6
2022-12-01T01:29:01.825Z,1026.6
2022-12-01T01:30:01.787Z,1026.7
2022-12-01T01:31:02.785Z,1026.6
2022-12-01T01:32:01.654Z,1026.6
2022-12-01T01:33:01.661Z,1026.7
2022-12-01T01:34:01.690Z,1026.6
2022-12-01T01:35:01.629Z,1026.5
2022-12-01T01:36:02.633Z,1026.5
2022-12-01T01:37:02.558Z,1026.5
2022-12-01T01:38:02.558Z,1026.5
2022-12-01T01:39:02.528Z,1026.5
2022-12-01T01:40:02.478Z,1026.5
2022-12-01T01:41:02.461Z,1026.5
2022-12-01T01:42:02.407Z,1026.5
2022-12-01T01:43:02.339Z,1026.5
2022-12-01T01:44:02.294Z,1026.5
2022-12-01T01:45:02.202Z,1026.5
2022-12-01T01:46:02.251Z,1026.5
2022-12-01T01:47:02.245Z,1026.5
2022-12-01T01:48:02.217Z,1026.5
2022-12-01T01:49:02.129Z,1026.5
2022-12-01T01:50:02.072Z,1026.5
2022-12-01T01:51:02.027Z,1026.5
2022-12-01T01:52:01.989Z,1026.5
2022-12-01T01:53:01.891Z,1026.5
2022-12-01T01:54:01.836Z,1026.4
2022-12-01T01:55:01.736Z,1026.4
2022-12-01T01:56:01.674Z,1026.4
2022-12-01T01:57:02.667Z,1026.4
2022-12-01T01:58:02.741Z,1026.4
2022-12-01T01:59:02.582Z,1026.4
2022-12-01T02:00:02.594Z,1026.3
2022-12-01T02:01:02.801Z,1026.4
2022-12-01T02:02:02.770Z,1026.3
2022-12-01T02:03:02.798Z,1026.3
2022-12-01T02:04:02.514Z,1026.3
2022-12-01T02:05:02.513Z,1026.3
2022-12-01T02:06:05.710Z,1026.3
2022-12-01T02:07:02.492Z,1026.3
2022-12-01T02:08:02.620Z,1026.3
2022-12-01T02:09:02.382Z,1026.3
2022-12-01T02:10:02.316Z,1026.4
2022-12-01T02:11:02.256Z,1026.3
2022-12-01T02:12:02.189Z,1026.3
2022-12-01T02:13:02.116Z,1026.3
2022-12-01T02:14:02.072Z,1026.4
2022-12-01T02:15:02.160Z,1026.3
2022-12-01T02:16:02.112Z,1026.4
2022-12-01T02:17:02.187Z,1026.4
2022-12-01T02:18:01.946Z,1026.3
2022-12-01T02:19:01.880Z,1026.3
2022-12-01T02:20:01.830Z,1026.3
2022-12-01T02:21:01.732Z,1026.3
2022-12-01T02:22:01.682Z,1026.3
2022-12-01T02:23:02.678Z,1026.3
2022-12-01T02:24:02.597Z,1026.3
2022-12-01T02:25:02.529Z,1026.3
2022-12-01T02:26:02.510Z,1026.3
2022-12-01T02:27:02.429Z,1026.3
2022-12-01T02:28:02.357Z,1026.3
2022-12-01T02:29:02.336Z,1026.3
2022-12-01T02:30:02.326Z,1026.3
2022-12-01T02:31:02.429Z,1026.3
2022-12-01T02:32:02.197Z,1026.3
2022-12-01T02:33:02.144Z,1026.2
2022-12-01T02:34:02.046Z,1026.4
2022-12-01T02:35:02.011Z,1026.3
2022-12-01T02:36:01.946Z,1026.3
2022-12-01T02:37:01.887Z,1026.3
2022-12-01T02:38:01.823Z,1026.3
2022-12-01T02:39:01.833Z,1026.3
2022-12-01T02:40:01.708Z,1026.3
2022-12-01T02:41:02.649Z,1026.3
2022-12-01T02:42:02.616Z,1026.3
2022-12-01T02:43:02.616Z,1026.4
2022-12-01T02:44:02.629Z,1026.4
2022-12-01T02:45:02.537Z,1026.3
2022-12-01T02:46:02.875Z,1026.4
2022-12-01T02:47:02.391Z,1026.4
2022-12-01T02:48:02.330Z,1026.3
2022-12-01T02:49:02.279Z,1026.3
2022-12-01T02:50:02.207Z,1026.3
2022-12-01T02:51:02.070Z,1026.3
2022-12-01T02:52:01.993Z,1026.3
2022-12-01T02:53:01.939Z,1026.3
2022-12-01T02:54:01.929Z,1026.3
2022-12-01T02:55:01.854Z,1026.3
2022-12-01T02:56:01.773Z,1026.3
2022-12-01T02:57:01.698Z,1026.2
2022-12-01T02:58:02.639Z,1026.3
2022-12-01T02:59:02.637Z,1026.3
2022-12-01T03:00:02.576Z,1026.2
2022-12-01T03:01:02.811Z,1026.2
2022-12-01T03:02:02.460Z,1026.2
2022-12-01T03:03:02.791Z,1026.2
2022-12-01T03:04:02.507Z,1026.2
2022-12-01T03:05:02.499Z,1026.2
2022-12-01T03:06:02.554Z,1026.2
2022-12-01T03:07:02.363Z,1026.2
2022-12-01T03:08:02.544Z,1026.2
2022-12-01T03:09:02.262Z,1026.2
2022-12-01T03:10:02.261Z,1026.1
2022-12-01T03:11:02.165Z,1026.1
2022-12-01T03:12:02.111Z,1026.2
2022-12-01T03:13:02.038Z,1026.1
2022-12-01T03:14:01.989Z,1026.1
2022-12-01T03:15:01.939Z,1026.1
2022-12-01T03:16:02.132Z,1026.1
2022-12-01T03:17:01.857Z,1026.1
2022-12-01T03:18:01.789Z,1026.1
2022-12-01T03:19:01.710Z,1026.2
2022-12-01T03:20:01.685Z,1026.1
2022-12-01T03:21:02.639Z,1026.1
2022-12-01T03:22:02.582Z,1026.1
2022-12-01T03:23:02.602Z,1026.1
2022-12-01T03:24:02.505Z,1026.2
2022-12-01T03:25:02.454Z,1026.1
2022-12-01T03:26:02.444Z,1026.1
2022-12-01T03:27:02.362Z,1026.1
2022-12-01T03:28:22.841Z,1026.1
2022-12-01T03:29:02.651Z,1026.1
2022-12-01T03:30:02.626Z,1026.1
2022-12-01T03:31:02.686Z,1026.1
2022-12-01T03:32:02.621Z,1026.1
2022-12-01T03:33:02.601Z,1026.1
2022-12-01T03:34:02.585Z,1026
2022-12-01T03:35:02.531Z,1026.1
2022-12-01T03:36:02.486Z,1026
2022-12-01T03:37:02.465Z,1026
2022-12-01T03:38:02.375Z,1025.9
2022-12-01T03:39:02.333Z,1026
2022-12-01T03:40:02.741Z,1026
2022-12-01T03:41:02.453Z,1026
2022-12-01T03:42:02.403Z,1026
2022-12-01T03:43:02.364Z,1026
2022-12-01T03:44:02.247Z,1025.9
2022-12-01T03:45:02.210Z,1026
2022-12-01T03:46:02.355Z,1025.9
2022-12-01T03:47:01.973Z,1026
2022-12-01T03:48:01.893Z,1026
2022-12-01T03:49:01.824Z,1026
2022-12-01T03:50:01.779Z,1026
2022-12-01T03:51:01.731Z,1026
2022-12-01T03:52:01.671Z,1026
2022-12-01T03:53:02.634Z,1026
2022-12-01T03:54:02.600Z,1026
2022-12-01T03:55:02.557Z,1026
2022-12-01T03:56:02.532Z,1026
2022-12-01T03:57:02.496Z,1026.1
2022-12-01T03:58:02.418Z,1026
2022-12-01T03:59:02.358Z,1026.1
2022-12-01T04:00:02.269Z,1026.1
2022-12-01T04:01:02.235Z,1026.1
2022-12-01T04:02:02.040Z,1026.1
2022-12-01T04:03:01.997Z,1026
2022-12-01T04:04:01.740Z,1026
2022-12-01T04:05:01.692Z,1026.1
2022-12-01T04:06:01.659Z,1026
2022-12-01T04:07:02.601Z,1026
2022-12-01T04:08:03.013Z,1026
2022-12-01T04:09:01.740Z,1026
2022-12-01T04:10:01.703Z,1026
2022-12-01T04:11:02.638Z,1026
2022-12-01T04:12:02.597Z,1026
2022-12-01T04:13:02.623Z,1025.9
2022-12-01T04:14:02.483Z,1025.9
2022-12-01T04:15:02.437Z,1025.9
2022-12-01T04:16:02.581Z,1025.9
2022-12-01T04:17:02.293Z,1025.9
2022-12-01T04:18:02.310Z,1026
2022-12-01T04:19:02.216Z,1025.9
2022-12-01T04:20:02.158Z,1025.9
2022-12-01T04:21:02.100Z,1025.9
2022-12-01T04:22:02.080Z,1025.9
2022-12-01T04:23:01.998Z,1025.9
2022-12-01T04:24:01.889Z,1025.8
2022-12-01T04:25:01.816Z,1025.8
2022-12-01T04:26:01.836Z,1025.8
2022-12-01T04:27:01.737Z,1025.8
2022-12-01T04:28:01.694Z,1025.8
2022-12-01T04:29:02.686Z,1025.8
2022-12-01T04:30:02.664Z,1025.8
2022-12-01T04:31:02.761Z,1025.8
2022-12-01T04:32:02.574Z,1025.8
2022-12-01T04:33:02.560Z,1025.8
2022-12-01T04:34:02.508Z,1025.8
2022-12-01T04:35:02.492Z,1025.8
2022-12-01T04:36:02.440Z,1025.8
2022-12-01T04:37:02.401Z,1025.8
2022-12-01T04:38:02.337Z,1025.9
2022-12-01T04:39:02.344Z,1025.8
2022-12-01T04:40:02.288Z,1025.8
2022-12-01T04:41:02.184Z,1025.8
2022-12-01T04:42:02.142Z,1025.8
2022-12-01T04:43:02.070Z,1025.8
2022-12-01T04:44:01.984Z,1025.9
2022-12-01T04:45:01.943Z,1025.8
2022-12-01T04:46:01.867Z,1025.9
2022-12-01T04:47:02.000Z,1025.9
2022-12-01T04:48:01.745Z,1025.8
2022-12-01T04:49:01.696Z,1025.9
2022-12-01T04:50:02.666Z,1025.9
2022-12-01T04:51:02.614Z,1025.9
2022-12-01T04:52:02.536Z,1025.9
2022-12-01T04:53:02.532Z,1025.9
2022-12-01T04:54:02.501Z,1025.9
2022-12-01T04:55:02.458Z,1025.8
2022-12-01T04:56:02.392Z,1025.9
2022-12-01T04:57:02.365Z,1025.9
2022-12-01T04:58:02.287Z,1025.9
2022-12-01T04:59:02.223Z,1025.9
2022-12-01T05:00:02.238Z,1025.8
2022-12-01T05:01:02.428Z,1025.9
2022-12-01T05:02:02.326Z,1025.8
2022-12-01T05:03:02.114Z,1025.9
2022-12-01T05:04:02.038Z,1025.9
2022-12-01T05:05:01.990Z,1025.8
2022-12-01T05:06:01.920Z,1025.8
2022-12-01T05:07:01.852Z,1025.9
2022-12-01T05:08:02.007Z,1025.9
2022-12-01T05:09:01.753Z,1025.9
2022-12-01T05:10:02.692Z,1025.9
2022-12-01T05:11:02.636Z,1025.9
2022-12-01T05:12:02.596Z,1025.9
2022-12-01T05:13:02.571Z,1026
2022-12-01T05:14:02.515Z,1026
2022-12-01T05:15:02.487Z,1026
2022-12-01T05:16:02.594Z,1026
2022-12-01T05:17:02.473Z,1026
2022-12-01T05:18:02.453Z,1026
2022-12-01T05:19:02.388Z,1026
2022-12-01T05:20:02.317Z,1026.1
2022-12-01T05:21:02.306Z,1026
2022-12-01T05:22:02.256Z,1026
2022-12-01T05:23:10.957Z,1026
2022-12-01T05:24:01.930Z,1026.1
2022-12-01T05:25:01.860Z,1026.1
2022-12-01T05:26:01.817Z,1026.1
2022-12-01T05:27:01.765Z,1026.1
2022-12-01T05:28:01.699Z,1026.1
2022-12-01T05:29:02.672Z,1026.1
2022-12-01T05:30:02.642Z,1026.1
2022-12-01T05:31:02.848Z,1026.1
2022-12-01T05:32:02.781Z,1026.1
2022-12-01T05:33:02.545Z,1026
2022-12-01T05:34:02.518Z,1026
2022-12-01T05:35:02.500Z,1026
2022-12-01T05:36:02.444Z,1026
2022-12-01T05:37:02.404Z,1026
2022-12-01T05:38:08.485Z,1026
2022-12-01T05:39:02.239Z,1026
2022-12-01T05:40:02.136Z,1026
2022-12-01T05:41:02.088Z,1026
2022-12-01T05:42:02.024Z,1025.9
2022-12-01T05:43:02.007Z,1025.9
2022-12-01T05:44:01.940Z,1026
2022-12-01T05:45:01.885Z,1026
2022-12-01T05:46:02.033Z,1026
2022-12-01T05:47:01.763Z,1026
2022-12-01T05:48:01.668Z,1026
2022-12-01T05:49:01.719Z,1026
2022-12-01T05:50:06.503Z,1025.9
2022-12-01T05:51:02.235Z,1025.9
2022-12-01T05:52:02.214Z,1025.9
2022-12-01T05:53:02.098Z,1026
2022-12-01T05:54:02.062Z,1025.9
2022-12-01T05:55:01.983Z,1025.9
2022-12-01T05:56:01.934Z,1025.9
2022-12-01T05:57:01.851Z,1025.9
2022-12-01T05:58:01.805Z,1025.9
2022-12-01T05:59:01.772Z,1026
2022-12-01T06:00:01.679Z,1025.9
2022-12-01T06:01:02.631Z,1026
2022-12-01T06:02:02.671Z,1025.9
2022-12-01T06:03:02.426Z,1026
2022-12-01T06:04:02.634Z,1026
2022-12-01T06:05:01.673Z,1026
2022-12-01T06:06:02.664Z,1026
2022-12-01T06:07:02.718Z,1026.1
2022-12-01T06:08:02.729Z,1026.1
2022-12-01T06:09:02.519Z,1026.1
2022-12-01T06:10:02.496Z,1026.1
2022-12-01T06:11:02.433Z,1026.1
2022-12-01T06:12:02.465Z,1026.1
2022-12-01T06:13:02.300Z,1026.1
2022-12-01T06:14:02.273Z,1026.1
2022-12-01T06:15:02.204Z,1026.1
2022-12-01T06:16:02.056Z,1026.1
2022-12-01T06:17:02.181Z,1026.1
2022-12-01T06:18:02.022Z,1026.2
2022-12-01T06:19:01.931Z,1026.1
2022-12-01T06:20:01.874Z,1026.1
2022-12-01T06:21:01.868Z,1026.1
2022-12-01T06:22:01.806Z,1026.1
2022-12-01T06:23:01.926Z,1026.1
2022-12-01T06:24:01.673Z,1026.1
2022-12-01T06:25:02.634Z,1026.1
2022-12-01T06:26:02.675Z,1026.1
2022-12-01T06:27:02.586Z,1026.2
2022-12-01T06:28:02.512Z,1026.3
2022-12-01T06:29:02.438Z,1026.2
2022-12-01T06:30:02.430Z,1026.3
2022-12-01T06:31:04.257Z,1026.3
2022-12-01T06:32:02.467Z,1026.3
2022-12-01T06:33:02.214Z,1026.2
2022-12-01T06:34:02.141Z,1026.2
2022-12-01T06:35:02.089Z,1026.2
2022-12-01T06:36:01.989Z,1026.2
2022-12-01T06:37:01.954Z,1026.2
2022-12-01T06:38:01.934Z,1026.2
2022-12-01T06:39:01.859Z,1026.2
2022-12-01T06:40:01.809Z,1026.3
2022-12-01T06:41:01.741Z,1026.2
2022-12-01T06:42:01.693Z,1026.2
2022-12-01T06:43:02.670Z,1026.3
2022-12-01T06:44:02.629Z,1026.3
2022-12-01T06:45:02.534Z,1026.3
2022-12-01T06:46:03.220Z,1026.2
2022-12-01T06:47:02.495Z,1026.3
2022-12-01T06:48:02.401Z,1026.3
2022-12-01T06:49:02.370Z,1026.3
2022-12-01T06:50:02.299Z,1026.3
2022-12-01T06:51:02.245Z,1026.3
2022-12-01T06:52:02.277Z,1026.3
2022-12-01T06:53:02.111Z,1026.4
2022-12-01T06:54:06.212Z,1026.4
2022-12-01T06:55:02.371Z,1026.4
2022-12-01T06:56:02.615Z,1026.4
2022-12-01T06:57:02.851Z,1026.4
2022-12-01T06:58:02.798Z,1026.4
2022-12-01T06:59:02.243Z,1026.5
2022-12-01T07:00:02.887Z,1026.5
2022-12-01T07:01:02.017Z,1026.4
2022-12-01T07:02:02.329Z,1026.4
2022-12-01T07:03:01.843Z,1026.4
2022-12-01T07:04:02.733Z,1026.4
2022-12-01T07:05:02.622Z,1026.5
2022-12-01T07:06:02.536Z,1026.4
2022-12-01T07:07:02.469Z,1026.5
2022-12-01T07:08:02.565Z,1026.4
2022-12-01T07:09:02.371Z,1026.4
2022-12-01T07:10:02.347Z,1026.4
2022-12-01T07:11:02.267Z,1026.5
2022-12-01T07:12:02.366Z,1026.4
2022-12-01T07:13:02.291Z,1026.4
2022-12-01T07:14:02.203Z,1026.4
2022-12-01T07:15:02.211Z,1026.4
2022-12-01T07:16:02.118Z,1026.4
2022-12-01T07:17:02.287Z,1026.5
2022-12-01T07:18:02.072Z,1026.5
2022-12-01T07:19:02.048Z,1026.5
2022-12-01T07:20:02.101Z,1026.4
2022-12-01T07:21:01.985Z,1026.5
2022-12-01T07:22:02.004Z,1026.4
2022-12-01T07:23:01.938Z,1026.5
2022-12-01T07:24:01.874Z,1026.5
2022-12-01T07:25:01.881Z,1026.5
2022-12-01T07:26:01.881Z,1026.5
2022-12-01T07:27:01.836Z,1026.5
2022-12-01T07:28:01.807Z,1026.5
2022-12-01T07:29:01.776Z,1026.4
2022-12-01T07:30:01.911Z,1026.5
2022-12-01T07:31:02.994Z,1026.5
2022-12-01T07:32:02.587Z,1026.5
2022-12-01T07:33:02.552Z,1026.5
2022-12-01T07:34:02.542Z,1026.5
2022-12-01T07:35:02.520Z,1026.5
2022-12-01T07:36:02.437Z,1026.5
2022-12-01T07:37:02.384Z,1026.6
2022-12-01T07:38:02.333Z,1026.6
2022-12-01T07:39:02.322Z,1026.6
2022-12-01T07:40:02.320Z,1026.6
2022-12-01T07:41:02.238Z,1026.6
2022-12-01T07:42:02.170Z,1026.6
2022-12-01T07:43:02.153Z,1026.6
2022-12-01T07:44:02.103Z,1026.5
2022-12-01T07:45:02.050Z,1026.5
2022-12-01T07:46:02.106Z,1026.5
2022-12-01T07:47:02.274Z,1026.6
2022-12-01T07:48:02.234Z,1026.5
2022-12-01T07:49:02.191Z,1026.5
2022-12-01T07:50:02.114Z,1026.6
2022-12-01T07:51:02.077Z,1026.6
2022-12-01T07:52:01.984Z,1026.5
2022-12-01T07:53:02.095Z,1026.5
2022-12-01T07:54:01.939Z,1026.5
2022-12-01T07:55:01.880Z,1026.6
2022-12-01T07:56:09.134Z,1026.6
2022-12-01T07:57:01.792Z,1026.6
2022-12-01T07:58:01.771Z,1026.6
2022-12-01T07:59:01.716Z,1026.5
2022-12-01T08:00:02.703Z,1026.6
2022-12-01T08:01:02.890Z,1026.6
2022-12-01T08:02:02.023Z,1026.6
2022-12-01T08:03:02.047Z,1026.6
2022-12-01T08:04:01.813Z,1026.6
2022-12-01T08:05:01.698Z,1026.6
2022-12-01T08:06:02.769Z,1026.6
2022-12-01T08:07:02.606Z,1026.6
2022-12-01T08:08:02.711Z,1026.6
2022-12-01T08:09:02.520Z,1026.6
2022-12-01T09:42:09.586Z,1026.5
2022-12-01T09:43:02.369Z,1026.5
2022-12-01T09:44:02.295Z,1026.4
2022-12-01T09:45:02.247Z,1026.5
2022-12-01T09:46:02.163Z,1026.4
2022-12-01T09:47:02.281Z,1026.4
2022-12-01T09:48:02.142Z,1026.4
2022-12-01T09:49:02.074Z,1026.4
2022-12-01T09:50:02.092Z,1026.4
2022-12-01T09:51:02.033Z,1026.4
2022-12-01T09:52:02.029Z,1026.3
2022-12-01T09:53:01.979Z,1026.3
2022-12-01T09:54:01.976Z,1026.3
2022-12-01T09:55:01.914Z,1026.3
2022-12-01T09:56:13.265Z,1026.3
2022-12-01T09:57:02.011Z,1026.3
2022-12-01T09:58:02.012Z,1026.3
2022-12-01T09:59:01.944Z,1026.2
2022-12-01T10:00:01.940Z,1026.3
2022-12-01T10:01:02.003Z,1026.3
2022-12-01T10:02:02.393Z,1026.3
2022-12-01T10:03:02.275Z,1026.3
2022-12-01T10:04:02.439Z,1026.3
2022-12-01T10:05:02.588Z,1026.2
2022-12-01T10:06:29.611Z,1026.3
2022-12-01T10:07:02.746Z,1026.3
2022-12-01T10:08:02.851Z,1026.3
2022-12-01T10:09:02.656Z,1026.3
2022-12-01T10:10:02.622Z,1026.2
2022-12-01T10:11:02.627Z,1026.2
2022-12-01T10:12:02.550Z,1026.2
2022-12-01T10:13:02.650Z,1026.3
2022-12-01T10:14:02.531Z,1026.3
2022-12-01T10:15:02.577Z,1026.3
2022-12-01T10:16:02.668Z,1026.3
2022-12-01T10:17:01.907Z,1026.3
2022-12-01T10:18:01.918Z,1026.3
2022-12-01T10:19:01.869Z,1026.3
2022-12-01T10:20:01.911Z,1026.3
2022-12-01T10:21:01.821Z,1026.3
2022-12-01T10:22:01.820Z,1026.3
2022-12-01T10:23:01.768Z,1026.3
2022-12-01T10:24:01.785Z,1026.2
2022-12-01T10:25:01.726Z,1026.3
2022-12-01T10:26:01.718Z,1026.2
2022-12-01T10:27:02.751Z,1026.3
2022-12-01T10:28:02.683Z,1026.2
2022-12-01T10:29:02.657Z,1026.2
2022-12-01T10:30:02.674Z,1026.3
2022-12-01T10:31:02.714Z,1026.3
2022-12-01T10:32:02.118Z,1026.2
2022-12-01T10:33:02.014Z,1026.2
2022-12-01T10:34:01.893Z,1026.2
2022-12-01T10:35:01.920Z,1026.2
2022-12-01T10:36:01.815Z,1026.1
2022-12-01T10:37:01.872Z,1026.2
2022-12-01T10:38:01.956Z,1026.2
2022-12-01T10:39:01.817Z,1026.1
2022-12-01T10:40:01.660Z,1026.2
2022-12-01T10:41:02.749Z,1026.1
2022-12-01T10:42:02.615Z,1026.1
2022-12-01T10:43:02.681Z,1026.1
2022-12-01T10:44:02.552Z,1026.2
2022-12-01T10:45:02.697Z,1026.2
2022-12-01T10:46:02.741Z,1026.1
2022-12-01T10:47:01.941Z,1026.2
2022-12-01T10:48:02.037Z,1026.1
2022-12-01T10:49:01.902Z,1026.1
2022-12-01T10:50:01.903Z,1026.1
2022-12-01T10:51:01.827Z,1026.1
2022-12-01T10:52:01.914Z,1026.1
2022-12-01T10:53:01.773Z,1026
2022-12-01T10:54:01.815Z,1026
2022-12-01T10:55:02.798Z,1026.1
2022-12-01T10:56:02.693Z,1026.1
2022-12-01T10:57:02.741Z,1026.1
2022-12-01T10:58:09.841Z,1026
2022-12-01T10:59:02.635Z,1026.1
2022-12-01T11:00:02.688Z,1026
2022-12-01T11:01:03.454Z,1026
2022-12-01T11:02:02.714Z,1026
2022-12-01T11:03:03.250Z,1026
2022-12-01T11:04:02.306Z,1026
2022-12-01T11:05:02.138Z,1026
2022-12-01T11:06:02.052Z,1026
2022-12-01T11:07:02.074Z,1026
2022-12-01T11:08:02.091Z,1026
2022-12-01T11:09:01.971Z,1026
2022-12-01T11:10:01.814Z,1026
2022-12-01T11:11:01.895Z,1026
2022-12-01T11:12:01.753Z,1026
2022-12-01T11:13:01.810Z,1025.9
2022-12-01T11:14:02.796Z,1025.9
2022-12-01T11:15:02.694Z,1026
2022-12-01T11:16:02.984Z,1025.9
2022-12-01T11:17:02.316Z,1025.9
2022-12-01T11:18:02.154Z,1025.9
2022-12-01T11:19:02.164Z,1025.9
2022-12-01T11:20:02.308Z,1025.9
2022-12-01T11:21:02.043Z,1025.9
2022-12-01T11:22:02.112Z,1025.9
2022-12-01T11:23:02.000Z,1025.9
2022-12-01T11:24:02.067Z,1025.8
2022-12-01T11:25:01.968Z,1025.9
2022-12-01T11:26:01.851Z,1025.9
2022-12-01T11:27:01.800Z,1025.9
2022-12-01T11:28:01.852Z,1025.9
2022-12-01T11:29:01.748Z,1025.8
2022-12-01T11:30:01.787Z,1025.9
2022-12-01T11:31:02.755Z,1025.8
2022-12-01T11:32:02.471Z,1025.8
2022-12-01T11:33:02.362Z,1025.8
2022-12-01T11:34:02.293Z,1025.8
2022-12-01T11:35:02.175Z,1025.8
2022-12-01T11:36:02.245Z,1025.8
2022-12-01T11:37:02.100Z,1025.8
2022-12-01T11:38:30.735Z,1025.7
2022-12-01T11:39:02.568Z,1025.7
2022-12-01T11:40:02.491Z,1025.7
2022-12-01T11:41:02.540Z,1025.8
2022-12-01T11:42:02.475Z,1025.7
2022-12-01T11:43:02.350Z,1025.8
2022-12-01T11:44:35.601Z,1025.8
2022-12-01T11:45:01.891Z,1025.8
2022-12-01T11:46:02.275Z,1025.9
2022-12-01T11:47:25.175Z,1025.9
2022-12-01T11:48:02.068Z,1025.9
2022-12-01T11:49:02.119Z,1025.9
2022-12-01T11:50:02.114Z,1025.9
2022-12-01T11:51:01.969Z,1025.9
2022-12-01T11:52:01.996Z,1025.9
2022-12-01T11:53:02.008Z,1025.9
2022-12-01T11:54:01.868Z,1025.9
2022-12-01T11:55:10.475Z,1025.9
2022-12-01T11:56:02.318Z,1025.9
2022-12-01T11:58:02.221Z,1025.8
2022-12-01T11:59:02.268Z,1025.9
2022-12-01T12:00:02.212Z,1025.8
2022-12-01T12:01:02.342Z,1025.9
2022-12-01T12:02:02.551Z,1025.9
2022-12-01T12:03:02.589Z,1025.9
2022-12-01T12:04:02.464Z,1025.9
2022-12-01T12:05:02.318Z,1025.9
2022-12-01T12:06:40.739Z,1025.9
2022-12-01T12:07:02.565Z,1025.9
2022-12-01T12:08:02.643Z,1025.9
2022-12-01T12:09:02.752Z,1025.9
2022-12-01T12:10:02.489Z,1025.9
2022-12-01T12:11:02.675Z,1025.9
2022-12-01T12:12:02.568Z,1025.9
2022-12-01T12:13:02.392Z,1025.9
2022-12-01T12:14:02.918Z,1025.9
2022-12-01T12:15:01.961Z,1025.9
2022-12-01T12:16:02.583Z,1025.9
2022-12-01T12:17:02.312Z,1026
2022-12-01T12:18:02.300Z,1025.9
2022-12-01T12:19:02.052Z,1025.9
2022-12-01T12:20:10.535Z,1026
2022-12-01T12:21:02.457Z,1026
2022-12-01T12:22:02.304Z,1025.9
2022-12-01T12:23:02.368Z,1025.9
2022-12-01T12:24:02.292Z,1025.9
2022-12-01T12:25:02.138Z,1025.9
2022-12-01T12:26:02.082Z,1025.9
2022-12-01T12:27:01.912Z,1025.9
2022-12-01T12:28:01.957Z,1026
2022-12-01T12:29:01.841Z,1025.9
2022-12-01T12:30:01.844Z,1025.9
2022-12-01T12:31:01.975Z,1026
2022-12-01T12:32:02.106Z,1026
2022-12-01T12:33:02.108Z,1026
2022-12-01T12:34:01.975Z,1025.9
2022-12-01T12:35:02.757Z,1025.9
2022-12-01T12:36:02.614Z,1025.9
2022-12-01T12:37:02.682Z,1026
2022-12-01T12:38:02.530Z,1025.9
2022-12-01T12:39:02.600Z,1025.9
2022-12-01T12:40:02.455Z,1026
2022-12-01T12:41:02.490Z,1025.9
2022-12-01T12:42:02.441Z,1025.9
2022-12-01T12:43:02.273Z,1025.9
2022-12-01T12:44:02.355Z,1025.9
2022-12-01T12:45:02.248Z,1025.9
2022-12-01T12:46:02.461Z,1025.9
2022-12-01T12:47:02.498Z,1025.9
2022-12-01T12:48:02.563Z,1025.8
2022-12-01T12:49:21.440Z,1025.9
2022-12-01T12:50:02.162Z,1025.9
2022-12-01T12:51:02.242Z,1025.9
2022-12-01T12:52:09.345Z,1025.9
2022-12-01T12:53:02.030Z,1025.9
2022-12-01T12:54:02.410Z,1025.8
2022-12-01T12:55:02.247Z,1025.8
2022-12-01T12:56:02.041Z,1025.8
2022-12-01T12:57:02.189Z,1025.8
2022-12-01T12:58:11.596Z,1025.9
2022-12-01T12:59:02.289Z,1025.9
2022-12-01T13:00:02.321Z,1025.9
2022-12-01T13:01:02.351Z,1025.8
2022-12-01T13:02:02.768Z,1025.9
2022-12-01T13:03:02.879Z,1025.9
2022-12-01T13:04:02.629Z,1025.8
2022-12-01T13:05:02.868Z,1025.9
2022-12-01T13:06:02.642Z,1025.9
2022-12-01T13:07:02.684Z,1025.9
2022-12-01T13:08:02.801Z,1025.9
2022-12-01T13:09:02.722Z,1025.9
2022-12-01T13:10:02.565Z,1025.9
2022-12-01T13:11:02.602Z,1025.9
2022-12-01T13:12:02.433Z,1025.9
2022-12-01T13:13:02.485Z,1025.9
2022-12-01T13:14:02.318Z,1025.9
2022-12-01T13:15:02.436Z,1025.9
2022-12-01T13:16:02.514Z,1025.9
2022-12-01T13:17:02.118Z,1025.9
2022-12-01T13:18:02.194Z,1025.9
2022-12-01T13:19:01.950Z,1026
2022-12-01T13:20:01.954Z,1025.9
2022-12-01T13:21:01.817Z,1026
2022-12-01T13:22:02.136Z,1026
2022-12-01T13:23:01.827Z,1026
2022-12-01T13:24:01.834Z,1026
2022-12-01T13:25:01.638Z,1026
2022-12-01T13:26:02.742Z,1026
2022-12-01T13:27:02.573Z,1026
2022-12-01T13:28:02.621Z,1026
2022-12-01T13:29:02.429Z,1026
2022-12-01T13:30:02.431Z,1026
2022-12-01T13:31:02.638Z,1026
2022-12-01T13:32:02.564Z,1026
2022-12-01T13:33:02.564Z,1026
2022-12-01T13:34:02.387Z,1026
2022-12-01T13:35:02.410Z,1026
2022-12-01T13:36:47.678Z,1025.9
2022-12-01T13:37:02.439Z,1025.9
2022-12-01T13:38:02.499Z,1026
2022-12-01T13:39:02.436Z,1025.9
2022-12-01T13:40:02.272Z,1026
2022-12-01T13:41:02.282Z,1025.9
2022-12-01T13:42:02.326Z,1025.9
2022-12-01T13:43:11.191Z,1026
2022-12-01T13:44:01.854Z,1025.9
2022-12-01T13:45:01.889Z,1025.9
2022-12-01T13:46:01.697Z,1025.9
2022-12-01T13:47:02.072Z,1026
2022-12-01T13:48:01.870Z,1026
2022-12-01T13:49:01.707Z,1025.9
2022-12-01T13:50:02.737Z,1025.9
2022-12-01T13:51:02.587Z,1025.9
2022-12-01T13:52:02.546Z,1025.9
2022-12-01T13:53:02.394Z,1025.9
2022-12-01T13:54:02.456Z,1026
2022-12-01T13:55:02.491Z,1026
2022-12-01T13:56:02.187Z,1026
2022-12-01T13:57:02.268Z,1025.9
2022-12-01T13:58:02.106Z,1026
2022-12-01T13:59:02.179Z,1026
2022-12-01T14:00:01.987Z,1026
2022-12-01T14:01:08.530Z,1026
2022-12-01T14:02:02.732Z,1026
2022-12-01T14:03:02.629Z,1026
2022-12-01T14:04:02.598Z,1026
2022-12-01T14:05:02.349Z,1026
2022-12-01T14:06:02.400Z,1026
2022-12-01T14:07:02.346Z,1026
2022-12-01T14:08:02.327Z,1026
2022-12-01T14:09:02.245Z,1026